sensor_id;sensor_type;location;lat;lon;timestamp;P1;durP1;ratioP1;P2;durP2;ratioP2
44048;SDS011;29717;47.028;15.470;2023-04-25T00:01:57;5.57;;;4.25;;
44048;SDS011;29717;47.028;15.470;2023-04-25T00:04:25;4.75;;;4.00;;
44048;SDS011;29717;47.028;15.470;2023-04-25T00:06:52;4.50;;;4.00;;
44048;SDS011;29717;47.028;15.470;2023-04-25T00:09:19;4.53;;;4.07;;
44048;SDS011;29717;47.028;15.470;2023-04-25T00:11:46;4.35;;;3.95;;
44048;SDS011;29717;47.028;15.470;2023-04-25T00:14:13;4.88;;;4.05;;
44048;SDS011;29717;47.028;15.470;2023-04-25T00:16:41;6.60;;;3.90;;
44048;SDS011;29717;47.028;15.470;2023-04-25T00:19:09;5.43;;;3.70;;
44048;SDS011;29717;47.028;15.470;2023-04-25T00:21:36;4.20;;;3.58;;
44048;SDS011;29717;47.028;15.470;2023-04-25T00:24:05;4.60;;;4.20;;
44048;SDS011;29717;47.028;15.470;2023-04-25T00:26:33;5.18;;;4.68;;
44048;SDS011;29717;47.028;15.470;2023-04-25T00:29:00;5.53;;;4.43;;
44048;SDS011;29717;47.028;15.470;2023-04-25T00:31:27;5.68;;;3.95;;
44048;SDS011;29717;47.028;15.470;2023-04-25T00:33:55;4.60;;;3.88;;
44048;SDS011;29717;47.028;15.470;2023-04-25T00:36:22;5.00;;;3.97;;
44048;SDS011;29717;47.028;15.470;2023-04-25T00:38:49;4.28;;;3.88;;
44048;SDS011;29717;47.028;15.470;2023-04-25T00:41:15;5.93;;;3.33;;
44048;SDS011;29717;47.028;15.470;2023-04-25T00:43:42;4.32;;;3.92;;
44048;SDS011;29717;47.028;15.470;2023-04-25T00:46:10;6.05;;;3.75;;
44048;SDS011;29717;47.028;15.470;2023-04-25T00:48:37;5.07;;;4.38;;
44048;SDS011;29717;47.028;15.470;2023-04-25T00:51:05;4.20;;;3.80;;
44048;SDS011;29717;47.028;15.470;2023-04-25T00:53:32;3.95;;;3.55;;
44048;SDS011;29717;47.028;15.470;2023-04-25T00:55:59;4.30;;;3.90;;
44048;SDS011;29717;47.028;15.470;2023-04-25T00:58:26;4.03;;;3.70;;
44048;SDS011;29717;47.028;15.470;2023-04-25T01:00:52;6.30;;;3.85;;
44048;SDS011;29717;47.028;15.470;2023-04-25T01:03:19;4.45;;;3.60;;
44048;SDS011;29717;47.028;15.470;2023-04-25T01:05:46;3.85;;;3.47;;
44048;SDS011;29717;47.028;15.470;2023-04-25T01:08:14;3.90;;;3.58;;
44048;SDS011;29717;47.028;15.470;2023-04-25T01:10:41;3.53;;;3.22;;
44048;SDS011;29717;47.028;15.470;2023-04-25T01:13:08;4.75;;;3.50;;
44048;SDS011;29717;47.028;15.470;2023-04-25T01:15:35;4.75;;;4.00;;
44048;SDS011;29717;47.028;15.470;2023-04-25T01:18:02;4.03;;;2.88;;
44048;SDS011;29717;47.028;15.470;2023-04-25T01:20:29;3.92;;;3.53;;
44048;SDS011;29717;47.028;15.470;2023-04-25T01:22:58;3.58;;;3.17;;
44048;SDS011;29717;47.028;15.470;2023-04-25T01:25:24;3.65;;;3.30;;
44048;SDS011;29717;47.028;15.470;2023-04-25T01:27:51;3.85;;;3.42;;
44048;SDS011;29717;47.028;15.470;2023-04-25T01:30:18;4.20;;;3.20;;
44048;SDS011;29717;47.028;15.470;2023-04-25T01:32:45;4.10;;;3.70;;
44048;SDS011;29717;47.028;15.470;2023-04-25T01:35:12;4.70;;;3.30;;
44048;SDS011;29717;47.028;15.470;2023-04-25T01:37:39;4.07;;;3.38;;
44048;SDS011;29717;47.028;15.470;2023-04-25T01:40:09;4.03;;;3.60;;
44048;SDS011;29717;47.028;15.470;2023-04-25T01:42:37;8.90;;;4.07;;
44048;SDS011;29717;47.028;15.470;2023-04-25T01:45:08;4.35;;;3.78;;
44048;SDS011;29717;47.028;15.470;2023-04-25T01:47:36;3.42;;;3.13;;
44048;SDS011;29717;47.028;15.470;2023-04-25T01:50:02;3.83;;;3.42;;
44048;SDS011;29717;47.028;15.470;2023-04-25T01:52:29;5.30;;;3.30;;
44048;SDS011;29717;47.028;15.470;2023-04-25T01:54:57;3.87;;;3.47;;
44048;SDS011;29717;47.028;15.470;2023-04-25T01:57:25;4.95;;;4.00;;
44048;SDS011;29717;47.028;15.470;2023-04-25T01:59:52;5.30;;;4.00;;
44048;SDS011;29717;47.028;15.470;2023-04-25T02:02:20;4.10;;;3.70;;
44048;SDS011;29717;47.028;15.470;2023-04-25T02:04:46;4.83;;;3.50;;
44048;SDS011;29717;47.028;15.470;2023-04-25T02:07:13;4.38;;;3.97;;
44048;SDS011;29717;47.028;15.470;2023-04-25T02:09:41;4.90;;;3.40;;
44048;SDS011;29717;47.028;15.470;2023-04-25T02:12:08;6.23;;;3.90;;
44048;SDS011;29717;47.028;15.470;2023-04-25T02:14:37;5.65;;;3.30;;
44048;SDS011;29717;47.028;15.470;2023-04-25T02:17:04;4.00;;;3.53;;
44048;SDS011;29717;47.028;15.470;2023-04-25T02:19:31;3.93;;;3.20;;
44048;SDS011;29717;47.028;15.470;2023-04-25T02:21:57;4.88;;;3.50;;
44048;SDS011;29717;47.028;15.470;2023-04-25T02:24:24;4.45;;;3.95;;
44048;SDS011;29717;47.028;15.470;2023-04-25T02:26:53;6.50;;;3.72;;
44048;SDS011;29717;47.028;15.470;2023-04-25T02:29:21;4.18;;;3.78;;
44048;SDS011;29717;47.028;15.470;2023-04-25T02:31:49;4.40;;;3.53;;
44048;SDS011;29717;47.028;15.470;2023-04-25T02:34:16;9.10;;;3.70;;
44048;SDS011;29717;47.028;15.470;2023-04-25T02:36:42;3.30;;;3.00;;
44048;SDS011;29717;47.028;15.470;2023-04-25T02:39:09;3.63;;;3.20;;
44048;SDS011;29717;47.028;15.470;2023-04-25T02:41:36;5.83;;;3.50;;
44048;SDS011;29717;47.028;15.470;2023-04-25T02:44:03;3.50;;;3.20;;
44048;SDS011;29717;47.028;15.470;2023-04-25T02:46:30;3.40;;;3.10;;
44048;SDS011;29717;47.028;15.470;2023-04-25T02:48:58;4.10;;;3.10;;
44048;SDS011;29717;47.028;15.470;2023-04-25T02:51:25;4.70;;;3.73;;
44048;SDS011;29717;47.028;15.470;2023-04-25T02:53:51;4.23;;;3.33;;
44048;SDS011;29717;47.028;15.470;2023-04-25T02:56:18;3.47;;;3.17;;
44048;SDS011;29717;47.028;15.470;2023-04-25T02:58:45;3.97;;;3.57;;
44048;SDS011;29717;47.028;15.470;2023-04-25T03:01:12;5.43;;;4.07;;
44048;SDS011;29717;47.028;15.470;2023-04-25T03:03:40;7.33;;;4.00;;
44048;SDS011;29717;47.028;15.470;2023-04-25T03:06:21;11.70;;;5.50;;
44048;SDS011;29717;47.028;15.470;2023-04-25T03:08:53;23.10;;;4.53;;
44048;SDS011;29717;47.028;15.470;2023-04-25T03:11:20;10.77;;;5.30;;
44048;SDS011;29717;47.028;15.470;2023-04-25T03:13:46;36.07;;;5.67;;
44048;SDS011;29717;47.028;15.470;2023-04-25T03:16:13;66.80;;;7.47;;
44048;SDS011;29717;47.028;15.470;2023-04-25T03:18:41;28.83;;;8.17;;
44048;SDS011;29717;47.028;15.470;2023-04-25T03:21:07;13.13;;;7.03;;
44048;SDS011;29717;47.028;15.470;2023-04-25T03:23:36;89.93;;;7.77;;
44048;SDS011;29717;47.028;15.470;2023-04-25T03:26:03;75.93;;;7.57;;
44048;SDS011;29717;47.028;15.470;2023-04-25T03:28:30;110.30;;;9.23;;
44048;SDS011;29717;47.028;15.470;2023-04-25T03:30:56;28.93;;;8.73;;
44048;SDS011;29717;47.028;15.470;2023-04-25T03:33:23;70.50;;;9.40;;
44048;SDS011;29717;47.028;15.470;2023-04-25T03:35:50;25.77;;;9.33;;
44048;SDS011;29717;47.028;15.470;2023-04-25T03:38:16;23.70;;;8.30;;
44048;SDS011;29717;47.028;15.470;2023-04-25T03:40:45;47.67;;;8.70;;
44048;SDS011;29717;47.028;15.470;2023-04-25T03:43:12;19.00;;;9.27;;
44048;SDS011;29717;47.028;15.470;2023-04-25T03:45:38;24.50;;;8.43;;
44048;SDS011;29717;47.028;15.470;2023-04-25T03:48:06;17.73;;;7.43;;
44048;SDS011;29717;47.028;15.470;2023-04-25T03:50:34;70.03;;;9.43;;
44048;SDS011;29717;47.028;15.470;2023-04-25T03:53:01;51.73;;;8.23;;
44048;SDS011;29717;47.028;15.470;2023-04-25T03:55:27;51.23;;;7.73;;
44048;SDS011;29717;47.028;15.470;2023-04-25T03:57:57;60.43;;;7.27;;
44048;SDS011;29717;47.028;15.470;2023-04-25T04:00:24;28.57;;;6.53;;
44048;SDS011;29717;47.028;15.470;2023-04-25T04:02:51;71.60;;;6.83;;
44048;SDS011;29717;47.028;15.470;2023-04-25T04:05:18;27.77;;;5.93;;
44048;SDS011;29717;47.028;15.470;2023-04-25T04:07:45;21.33;;;6.57;;
44048;SDS011;29717;47.028;15.470;2023-04-25T04:10:12;25.77;;;6.87;;
44048;SDS011;29717;47.028;15.470;2023-04-25T04:12:39;42.03;;;6.70;;
44048;SDS011;29717;47.028;15.470;2023-04-25T04:15:08;23.50;;;6.50;;
44048;SDS011;29717;47.028;15.470;2023-04-25T04:17:35;16.00;;;5.80;;
44048;SDS011;29717;47.028;15.470;2023-04-25T04:20:02;14.38;;;6.25;;
44048;SDS011;29717;47.028;15.470;2023-04-25T04:22:29;44.33;;;5.97;;
44048;SDS011;29717;47.028;15.470;2023-04-25T04:24:56;32.33;;;7.23;;
44048;SDS011;29717;47.028;15.470;2023-04-25T04:27:23;22.70;;;6.20;;
44048;SDS011;29717;47.028;15.470;2023-04-25T04:29:52;41.13;;;6.73;;
44048;SDS011;29717;47.028;15.470;2023-04-25T04:32:20;23.77;;;6.30;;
44048;SDS011;29717;47.028;15.470;2023-04-25T04:34:48;32.00;;;6.47;;
44048;SDS011;29717;47.028;15.470;2023-04-25T04:37:15;25.37;;;5.97;;
44048;SDS011;29717;47.028;15.470;2023-04-25T04:39:44;13.67;;;6.03;;
44048;SDS011;29717;47.028;15.470;2023-04-25T04:42:12;20.65;;;6.57;;
44048;SDS011;29717;47.028;15.470;2023-04-25T04:44:39;19.57;;;7.03;;
44048;SDS011;29717;47.028;15.470;2023-04-25T04:47:06;9.40;;;6.13;;
44048;SDS011;29717;47.028;15.470;2023-04-25T04:49:34;20.53;;;6.63;;
44048;SDS011;29717;47.028;15.470;2023-04-25T04:52:01;24.75;;;6.00;;
44048;SDS011;29717;47.028;15.470;2023-04-25T04:54:28;13.63;;;5.65;;
44048;SDS011;29717;47.028;15.470;2023-04-25T04:57:00;6.60;;;5.95;;
44048;SDS011;29717;47.028;15.470;2023-04-25T04:59:27;8.75;;;5.60;;
44048;SDS011;29717;47.028;15.470;2023-04-25T05:01:54;12.32;;;6.18;;
44048;SDS011;29717;47.028;15.470;2023-04-25T05:04:22;9.38;;;5.65;;
44048;SDS011;29717;47.028;15.470;2023-04-25T05:06:51;7.47;;;6.22;;
44048;SDS011;29717;47.028;15.470;2023-04-25T05:11:53;13.40;;;5.63;;
44048;SDS011;29717;47.028;15.470;2023-04-25T05:14:23;11.10;;;6.18;;
44048;SDS011;29717;47.028;15.470;2023-04-25T05:16:52;6.30;;;5.70;;
44048;SDS011;29717;47.028;15.470;2023-04-25T05:19:32;9.63;;;6.75;;
44048;SDS011;29717;47.028;15.470;2023-04-25T05:22:00;11.38;;;6.13;;
44048;SDS011;29717;47.028;15.470;2023-04-25T05:24:27;6.88;;;5.80;;
44048;SDS011;29717;47.028;15.470;2023-04-25T05:26:54;7.85;;;6.50;;
44048;SDS011;29717;47.028;15.470;2023-04-25T05:29:21;7.05;;;6.28;;
44048;SDS011;29717;47.028;15.470;2023-04-25T05:31:47;12.75;;;5.30;;
44048;SDS011;29717;47.028;15.470;2023-04-25T05:34:14;11.77;;;5.80;;
44048;SDS011;29717;47.028;15.470;2023-04-25T05:36:41;11.43;;;5.70;;
44048;SDS011;29717;47.028;15.470;2023-04-25T05:39:10;7.78;;;5.43;;
44048;SDS011;29717;47.028;15.470;2023-04-25T05:41:41;10.75;;;6.05;;
44048;SDS011;29717;47.028;15.470;2023-04-25T05:44:09;6.95;;;6.15;;
44048;SDS011;29717;47.028;15.470;2023-04-25T05:46:36;5.70;;;5.05;;
44048;SDS011;29717;47.028;15.470;2023-04-25T05:49:03;7.05;;;5.40;;
44048;SDS011;29717;47.028;15.470;2023-04-25T05:51:30;8.95;;;5.90;;
44048;SDS011;29717;47.028;15.470;2023-04-25T05:53:56;7.00;;;6.18;;
44048;SDS011;29717;47.028;15.470;2023-04-25T05:56:25;6.65;;;5.97;;
44048;SDS011;29717;47.028;15.470;2023-04-25T05:58:52;8.60;;;5.80;;
44048;SDS011;29717;47.028;15.470;2023-04-25T06:01:20;7.72;;;6.30;;
44048;SDS011;29717;47.028;15.470;2023-04-25T06:03:47;6.45;;;5.57;;
44048;SDS011;29717;47.028;15.470;2023-04-25T06:06:14;9.27;;;5.95;;
44048;SDS011;29717;47.028;15.470;2023-04-25T06:08:40;6.82;;;6.15;;
44048;SDS011;29717;47.028;15.470;2023-04-25T06:11:08;6.10;;;5.50;;
44048;SDS011;29717;47.028;15.470;2023-04-25T06:13:36;7.13;;;5.28;;
44048;SDS011;29717;47.028;15.470;2023-04-25T06:16:03;7.03;;;5.85;;
44048;SDS011;29717;47.028;15.470;2023-04-25T06:18:30;6.25;;;5.65;;
44048;SDS011;29717;47.028;15.470;2023-04-25T06:20:58;6.97;;;5.00;;
44048;SDS011;29717;47.028;15.470;2023-04-25T06:23:25;6.70;;;5.45;;
44048;SDS011;29717;47.028;15.470;2023-04-25T06:25:53;6.03;;;5.43;;
44048;SDS011;29717;47.028;15.470;2023-04-25T06:28:20;6.43;;;5.35;;
44048;SDS011;29717;47.028;15.470;2023-04-25T06:30:48;8.25;;;5.32;;
44048;SDS011;29717;47.028;15.470;2023-04-25T06:33:15;7.13;;;5.68;;
44048;SDS011;29717;47.028;15.470;2023-04-25T06:35:42;9.00;;;6.40;;
44048;SDS011;29717;47.028;15.470;2023-04-25T06:38:11;7.07;;;6.20;;
44048;SDS011;29717;47.028;15.470;2023-04-25T06:40:38;8.45;;;6.10;;
44048;SDS011;29717;47.028;15.470;2023-04-25T06:43:05;6.85;;;5.72;;
44048;SDS011;29717;47.028;15.470;2023-04-25T06:45:32;8.88;;;6.40;;
44048;SDS011;29717;47.028;15.470;2023-04-25T06:48:00;6.53;;;5.60;;
44048;SDS011;29717;47.028;15.470;2023-04-25T06:50:33;6.85;;;5.47;;
44048;SDS011;29717;47.028;15.470;2023-04-25T06:53:00;9.50;;;5.35;;
44048;SDS011;29717;47.028;15.470;2023-04-25T06:55:27;6.57;;;4.97;;
44048;SDS011;29717;47.028;15.470;2023-04-25T06:57:56;6.10;;;5.22;;
44048;SDS011;29717;47.028;15.470;2023-04-25T07:00:23;8.73;;;5.60;;
44048;SDS011;29717;47.028;15.470;2023-04-25T07:02:51;6.13;;;4.88;;
44048;SDS011;29717;47.028;15.470;2023-04-25T07:05:23;9.32;;;5.00;;
44048;SDS011;29717;47.028;15.470;2023-04-25T07:07:52;10.23;;;5.30;;
44048;SDS011;29717;47.028;15.470;2023-04-25T07:10:19;7.82;;;4.93;;
44048;SDS011;29717;47.028;15.470;2023-04-25T07:12:46;5.93;;;4.45;;
44048;SDS011;29717;47.028;15.470;2023-04-25T07:15:19;7.05;;;4.63;;
44048;SDS011;29717;47.028;15.470;2023-04-25T07:17:48;6.10;;;4.55;;
44048;SDS011;29717;47.028;15.470;2023-04-25T07:20:17;8.60;;;4.70;;
44048;SDS011;29717;47.028;15.470;2023-04-25T07:22:51;5.55;;;5.05;;
44048;SDS011;29717;47.028;15.470;2023-04-25T07:25:19;5.75;;;4.18;;
44048;SDS011;29717;47.028;15.470;2023-04-25T07:27:46;5.38;;;3.53;;
44048;SDS011;29717;47.028;15.470;2023-04-25T07:30:13;5.30;;;3.60;;
44048;SDS011;29717;47.028;15.470;2023-04-25T07:32:40;5.32;;;3.90;;
44048;SDS011;29717;47.028;15.470;2023-04-25T07:35:10;5.93;;;3.40;;
44048;SDS011;29717;47.028;15.470;2023-04-25T07:37:36;5.32;;;3.33;;
44048;SDS011;29717;47.028;15.470;2023-04-25T07:40:06;3.65;;;2.92;;
44048;SDS011;29717;47.028;15.470;2023-04-25T07:42:34;2.72;;;2.50;;
44048;SDS011;29717;47.028;15.470;2023-04-25T07:45:01;2.50;;;2.30;;
44048;SDS011;29717;47.028;15.470;2023-04-25T07:47:32;3.60;;;2.70;;
44048;SDS011;29717;47.028;15.470;2023-04-25T07:49:59;5.90;;;3.00;;
44048;SDS011;29717;47.028;15.470;2023-04-25T07:52:26;4.72;;;3.55;;
44048;SDS011;29717;47.028;15.470;2023-04-25T07:54:53;5.97;;;3.88;;
44048;SDS011;29717;47.028;15.470;2023-04-25T07:57:24;3.03;;;2.60;;
44048;SDS011;29717;47.028;15.470;2023-04-25T07:59:53;3.42;;;2.58;;
44048;SDS011;29717;47.028;15.470;2023-04-25T08:02:20;1.95;;;1.80;;
44048;SDS011;29717;47.028;15.470;2023-04-25T08:04:47;1.85;;;1.55;;
44048;SDS011;29717;47.028;15.470;2023-04-25T08:07:16;1.70;;;1.60;;
44048;SDS011;29717;47.028;15.470;2023-04-25T08:09:44;1.50;;;1.40;;
44048;SDS011;29717;47.028;15.470;2023-04-25T08:12:15;1.80;;;1.52;;
44048;SDS011;29717;47.028;15.470;2023-04-25T08:14:44;2.08;;;1.27;;
44048;SDS011;29717;47.028;15.470;2023-04-25T08:17:11;1.05;;;0.90;;
44048;SDS011;29717;47.028;15.470;2023-04-25T08:19:38;1.00;;;0.90;;
44048;SDS011;29717;47.028;15.470;2023-04-25T08:22:05;0.80;;;0.80;;
44048;SDS011;29717;47.028;15.470;2023-04-25T08:24:32;1.70;;;0.88;;
44048;SDS011;29717;47.028;15.470;2023-04-25T08:27:01;1.50;;;0.98;;
44048;SDS011;29717;47.028;15.470;2023-04-25T08:29:28;1.23;;;0.90;;
44048;SDS011;29717;47.028;15.470;2023-04-25T08:31:57;1.52;;;1.05;;
44048;SDS011;29717;47.028;15.470;2023-04-25T08:34:24;1.50;;;1.10;;
44048;SDS011;29717;47.028;15.470;2023-04-25T08:36:51;2.28;;;1.10;;
44048;SDS011;29717;47.028;15.470;2023-04-25T08:39:20;2.25;;;1.13;;
44048;SDS011;29717;47.028;15.470;2023-04-25T08:41:48;1.73;;;0.90;;
44048;SDS011;29717;47.028;15.470;2023-04-25T08:44:31;1.02;;;0.88;;
44048;SDS011;29717;47.028;15.470;2023-04-25T08:47:08;1.83;;;1.10;;
44048;SDS011;29717;47.028;15.470;2023-04-25T08:49:38;1.50;;;1.05;;
44048;SDS011;29717;47.028;15.470;2023-04-25T08:52:08;2.17;;;1.13;;
44048;SDS011;29717;47.028;15.470;2023-04-25T08:54:45;1.05;;;0.95;;
44048;SDS011;29717;47.028;15.470;2023-04-25T08:57:12;1.40;;;0.95;;
44048;SDS011;29717;47.028;15.470;2023-04-25T08:59:43;1.90;;;1.17;;
44048;SDS011;29717;47.028;15.470;2023-04-25T09:02:33;1.25;;;0.98;;
44048;SDS011;29717;47.028;15.470;2023-04-25T09:05:01;1.50;;;0.90;;
44048;SDS011;29717;47.028;15.470;2023-04-25T09:07:35;2.13;;;1.52;;
44048;SDS011;29717;47.028;15.470;2023-04-25T09:10:03;1.10;;;1.00;;
44048;SDS011;29717;47.028;15.470;2023-04-25T09:12:32;1.52;;;0.95;;
44048;SDS011;29717;47.028;15.470;2023-04-25T09:15:08;1.10;;;0.90;;
44048;SDS011;29717;47.028;15.470;2023-04-25T09:17:39;1.80;;;0.90;;
44048;SDS011;29717;47.028;15.470;2023-04-25T09:20:12;4.00;;;1.30;;
44048;SDS011;29717;47.028;15.470;2023-04-25T09:22:43;1.90;;;1.13;;
44048;SDS011;29717;47.028;15.470;2023-04-25T09:25:14;0.80;;;0.80;;
44048;SDS011;29717;47.028;15.470;2023-04-25T09:27:53;1.20;;;1.08;;
44048;SDS011;29717;47.028;15.470;2023-04-25T09:30:31;1.33;;;0.95;;
44048;SDS011;29717;47.028;15.470;2023-04-25T09:33:07;1.17;;;0.88;;
44048;SDS011;29717;47.028;15.470;2023-04-25T09:35:49;1.15;;;1.00;;
44048;SDS011;29717;47.028;15.470;2023-04-25T09:38:20;1.85;;;1.17;;
44048;SDS011;29717;47.028;15.470;2023-04-25T09:40:54;1.15;;;0.90;;
44048;SDS011;29717;47.028;15.470;2023-04-25T09:43:24;2.78;;;1.10;;
44048;SDS011;29717;47.028;15.470;2023-04-25T09:45:57;1.00;;;0.90;;
44048;SDS011;29717;47.028;15.470;2023-04-25T09:48:43;1.10;;;1.00;;
44048;SDS011;29717;47.028;15.470;2023-04-25T09:51:22;1.40;;;1.23;;
44048;SDS011;29717;47.028;15.470;2023-04-25T09:54:01;1.15;;;0.93;;
44048;SDS011;29717;47.028;15.470;2023-04-25T09:56:39;1.02;;;0.90;;
44048;SDS011;29717;47.028;15.470;2023-04-25T09:59:16;0.93;;;0.77;;
44048;SDS011;29717;47.028;15.470;2023-04-25T10:01:48;1.35;;;0.95;;
44048;SDS011;29717;47.028;15.470;2023-04-25T10:04:20;0.70;;;0.70;;
44048;SDS011;29717;47.028;15.470;2023-04-25T10:06:51;1.70;;;0.82;;
44048;SDS011;29717;47.028;15.470;2023-04-25T10:09:25;1.95;;;0.70;;
44048;SDS011;29717;47.028;15.470;2023-04-25T10:11:54;1.08;;;0.93;;
44048;SDS011;29717;47.028;15.470;2023-04-25T10:14:44;1.15;;;0.90;;
44048;SDS011;29717;47.028;15.470;2023-04-25T10:17:14;0.77;;;0.77;;
44048;SDS011;29717;47.028;15.470;2023-04-25T10:20:11;1.05;;;0.90;;
44048;SDS011;29717;47.028;15.470;2023-04-25T10:22:44;0.70;;;0.70;;
44048;SDS011;29717;47.028;15.470;2023-04-25T10:25:19;1.60;;;0.75;;
44048;SDS011;29717;47.028;15.470;2023-04-25T10:27:46;2.95;;;0.77;;
44048;SDS011;29717;47.028;15.470;2023-04-25T10:30:16;2.38;;;0.80;;
44048;SDS011;29717;47.028;15.470;2023-04-25T10:32:45;0.98;;;0.80;;
44048;SDS011;29717;47.028;15.470;2023-04-25T10:35:34;1.08;;;0.70;;
44048;SDS011;29717;47.028;15.470;2023-04-25T10:38:09;1.13;;;0.70;;
44048;SDS011;29717;47.028;15.470;2023-04-25T10:40:37;1.17;;;0.80;;
44048;SDS011;29717;47.028;15.470;2023-04-25T10:45:59;1.42;;;0.82;;
44048;SDS011;29717;47.028;15.470;2023-04-25T10:48:31;1.05;;;0.70;;
44048;SDS011;29717;47.028;15.470;2023-04-25T10:51:18;3.15;;;0.80;;
44048;SDS011;29717;47.028;15.470;2023-04-25T10:53:59;1.10;;;1.00;;
44048;SDS011;29717;47.028;15.470;2023-04-25T10:56:27;2.50;;;0.88;;
44048;SDS011;29717;47.028;15.470;2023-04-25T10:59:05;1.45;;;0.70;;
44048;SDS011;29717;47.028;15.470;2023-04-25T11:01:36;1.00;;;0.80;;
44048;SDS011;29717;47.028;15.470;2023-04-25T11:04:21;1.00;;;0.90;;
44048;SDS011;29717;47.028;15.470;2023-04-25T11:09:49;0.88;;;0.70;;
44048;SDS011;29717;47.028;15.470;2023-04-25T11:12:17;0.90;;;0.80;;
44048;SDS011;29717;47.028;15.470;2023-04-25T11:14:44;1.17;;;0.80;;
44048;SDS011;29717;47.028;15.470;2023-04-25T11:17:12;1.17;;;0.93;;
44048;SDS011;29717;47.028;15.470;2023-04-25T11:19:42;1.15;;;0.90;;
44048;SDS011;29717;47.028;15.470;2023-04-25T11:22:11;2.10;;;0.80;;
44048;SDS011;29717;47.028;15.470;2023-04-25T11:24:46;1.58;;;1.00;;
44048;SDS011;29717;47.028;15.470;2023-04-25T11:27:25;0.95;;;0.70;;
44048;SDS011;29717;47.028;15.470;2023-04-25T11:29:58;1.35;;;0.77;;
44048;SDS011;29717;47.028;15.470;2023-04-25T11:32:26;0.95;;;0.85;;
44048;SDS011;29717;47.028;15.470;2023-04-25T11:34:54;2.60;;;0.90;;
44048;SDS011;29717;47.028;15.470;2023-04-25T11:37:24;1.23;;;0.90;;
44048;SDS011;29717;47.028;15.470;2023-04-25T11:39:53;1.33;;;1.08;;
44048;SDS011;29717;47.028;15.470;2023-04-25T11:42:20;2.05;;;0.98;;
44048;SDS011;29717;47.028;15.470;2023-04-25T11:44:53;3.60;;;1.15;;
44048;SDS011;29717;47.028;15.470;2023-04-25T11:47:27;1.75;;;1.15;;
44048;SDS011;29717;47.028;15.470;2023-04-25T11:49:55;1.75;;;1.20;;
44048;SDS011;29717;47.028;15.470;2023-04-25T11:52:24;1.35;;;1.20;;
44048;SDS011;29717;47.028;15.470;2023-04-25T11:54:52;1.20;;;1.10;;
44048;SDS011;29717;47.028;15.470;2023-04-25T11:57:24;1.95;;;0.93;;
44048;SDS011;29717;47.028;15.470;2023-04-25T12:00:14;1.00;;;0.90;;
44048;SDS011;29717;47.028;15.470;2023-04-25T12:02:48;1.10;;;1.00;;
44048;SDS011;29717;47.028;15.470;2023-04-25T12:05:23;1.23;;;0.80;;
44048;SDS011;29717;47.028;15.470;2023-04-25T12:07:59;3.72;;;1.00;;
44048;SDS011;29717;47.028;15.470;2023-04-25T12:10:48;1.63;;;0.93;;
44048;SDS011;29717;47.028;15.470;2023-04-25T12:13:25;2.33;;;1.00;;
44048;SDS011;29717;47.028;15.470;2023-04-25T12:15:58;2.25;;;1.10;;
44048;SDS011;29717;47.028;15.470;2023-04-25T12:18:33;1.30;;;0.80;;
44048;SDS011;29717;47.028;15.470;2023-04-25T12:21:02;3.13;;;1.10;;
44048;SDS011;29717;47.028;15.470;2023-04-25T12:23:43;1.85;;;1.08;;
44048;SDS011;29717;47.028;15.470;2023-04-25T12:26:23;1.20;;;1.00;;
44048;SDS011;29717;47.028;15.470;2023-04-25T12:28:50;1.65;;;1.10;;
44048;SDS011;29717;47.028;15.470;2023-04-25T12:31:21;1.63;;;1.02;;
44048;SDS011;29717;47.028;15.470;2023-04-25T12:33:51;1.25;;;0.90;;
44048;SDS011;29717;47.028;15.470;2023-04-25T12:36:25;1.35;;;1.10;;
44048;SDS011;29717;47.028;15.470;2023-04-25T12:38:52;1.45;;;0.90;;
44048;SDS011;29717;47.028;15.470;2023-04-25T12:41:20;1.25;;;1.00;;
44048;SDS011;29717;47.028;15.470;2023-04-25T12:43:50;1.55;;;1.08;;
44048;SDS011;29717;47.028;15.470;2023-04-25T12:46:21;2.20;;;1.20;;
44048;SDS011;29717;47.028;15.470;2023-04-25T12:48:49;1.55;;;1.10;;
44048;SDS011;29717;47.028;15.470;2023-04-25T12:51:19;2.90;;;0.85;;
44048;SDS011;29717;47.028;15.470;2023-04-25T12:53:49;1.48;;;1.00;;
44048;SDS011;29717;47.028;15.470;2023-04-25T12:56:25;2.78;;;1.23;;
44048;SDS011;29717;47.028;15.470;2023-04-25T12:59:06;1.00;;;0.90;;
44048;SDS011;29717;47.028;15.470;2023-04-25T13:01:40;2.00;;;1.10;;
44048;SDS011;29717;47.028;15.470;2023-04-25T13:04:09;4.53;;;2.20;;
44048;SDS011;29717;47.028;15.470;2023-04-25T13:06:36;2.80;;;1.17;;
44048;SDS011;29717;47.028;15.470;2023-04-25T13:11:53;1.98;;;1.10;;
44048;SDS011;29717;47.028;15.470;2023-04-25T13:14:27;2.55;;;1.10;;
44048;SDS011;29717;47.028;15.470;2023-04-25T13:17:00;3.38;;;1.33;;
44048;SDS011;29717;47.028;15.470;2023-04-25T13:19:28;1.73;;;0.90;;
44048;SDS011;29717;47.028;15.470;2023-04-25T13:24:58;1.17;;;1.00;;
44048;SDS011;29717;47.028;15.470;2023-04-25T13:27:30;2.85;;;1.02;;
44048;SDS011;29717;47.028;15.470;2023-04-25T13:30:01;1.63;;;1.20;;
44048;SDS011;29717;47.028;15.470;2023-04-25T13:35:44;1.00;;;0.90;;
44048;SDS011;29717;47.028;15.470;2023-04-25T13:38:25;1.35;;;0.82;;
44048;SDS011;29717;47.028;15.470;2023-04-25T13:40:53;2.95;;;0.80;;
44048;SDS011;29717;47.028;15.470;2023-04-25T13:43:21;1.08;;;0.98;;
44048;SDS011;29717;47.028;15.470;2023-04-25T13:45:48;7.38;;;0.93;;
44048;SDS011;29717;47.028;15.470;2023-04-25T13:48:20;1.08;;;0.80;;
44048;SDS011;29717;47.028;15.470;2023-04-25T13:50:57;1.20;;;0.90;;
44048;SDS011;29717;47.028;15.470;2023-04-25T13:53:36;3.50;;;0.80;;
44048;SDS011;29717;47.028;15.470;2023-04-25T13:56:16;1.40;;;1.00;;
44048;SDS011;29717;47.028;15.470;2023-04-25T13:58:58;1.55;;;1.00;;
44048;SDS011;29717;47.028;15.470;2023-04-25T14:01:27;3.85;;;0.80;;
44048;SDS011;29717;47.028;15.470;2023-04-25T14:03:56;1.10;;;0.90;;
44048;SDS011;29717;47.028;15.470;2023-04-25T14:06:31;5.47;;;1.00;;
44048;SDS011;29717;47.028;15.470;2023-04-25T14:08:58;2.05;;;1.00;;
44048;SDS011;29717;47.028;15.470;2023-04-25T14:11:25;1.45;;;0.77;;
44048;SDS011;29717;47.028;15.470;2023-04-25T14:13:52;0.85;;;0.80;;
44048;SDS011;29717;47.028;15.470;2023-04-25T14:16:19;1.08;;;0.90;;
44048;SDS011;29717;47.028;15.470;2023-04-25T14:18:48;0.75;;;0.70;;
44048;SDS011;29717;47.028;15.470;2023-04-25T14:21:15;0.95;;;0.90;;
44048;SDS011;29717;47.028;15.470;2023-04-25T14:23:43;1.40;;;1.00;;
44048;SDS011;29717;47.028;15.470;2023-04-25T14:26:13;2.20;;;1.00;;
44048;SDS011;29717;47.028;15.470;2023-04-25T14:28:40;1.27;;;0.80;;
44048;SDS011;29717;47.028;15.470;2023-04-25T14:31:07;1.92;;;0.95;;
44048;SDS011;29717;47.028;15.470;2023-04-25T14:33:34;1.30;;;0.93;;
44048;SDS011;29717;47.028;15.470;2023-04-25T14:36:03;0.98;;;0.90;;
44048;SDS011;29717;47.028;15.470;2023-04-25T14:38:30;1.13;;;1.02;;
44048;SDS011;29717;47.028;15.470;2023-04-25T14:41:01;1.67;;;0.90;;
44048;SDS011;29717;47.028;15.470;2023-04-25T14:43:31;0.65;;;0.65;;
44048;SDS011;29717;47.028;15.470;2023-04-25T14:46:00;2.55;;;0.93;;
44048;SDS011;29717;47.028;15.470;2023-04-25T14:48:27;1.85;;;0.85;;
44048;SDS011;29717;47.028;15.470;2023-04-25T14:50:55;0.68;;;0.68;;
44048;SDS011;29717;47.028;15.470;2023-04-25T14:53:23;1.83;;;1.27;;
44048;SDS011;29717;47.028;15.470;2023-04-25T14:55:49;1.45;;;1.00;;
44048;SDS011;29717;47.028;15.470;2023-04-25T14:58:18;3.10;;;0.90;;
44048;SDS011;29717;47.028;15.470;2023-04-25T15:00:45;2.03;;;1.08;;
44048;SDS011;29717;47.028;15.470;2023-04-25T15:03:12;1.27;;;0.90;;
44048;SDS011;29717;47.028;15.470;2023-04-25T15:05:39;2.17;;;0.90;;